Time;durP1;ratioP1;P1;durP2;ratioP2;P2;SDS_P1;SDS_P2;PMS_P1;PMS_P2;Temp;Humidity;BMP_temperature;BMP_pressure;BME280_temperature;BME280_humidity;BME280_pressure;Samples;Min_cycle;Max_cycle;Signal;HPM_P1;HPM_P2
2022/04/11 00:01:32;;;;;;;13.75;7.32;;;;;;;2.99;79.76;94739.03;6232697;22;20034;-84
2022/04/11 00:03:57;;;;;;;11.90;6.82;;;;;;;3.30;80.18;94777.03;6234378;22;20371;-83
2022/04/11 00:06:23;;;;;;;17.92;7.53;;;;;;;3.12;79.59;94752.88;6236091;23;20391;-83
2022/04/11 00:08:48;;;;;;;14.65;7.05;;;;;;;2.95;79.73;94745.00;6240641;23;20012;-83
2022/04/11 00:11:13;;;;;;;13.55;7.60;;;;;;;2.55;79.89;94682.25;6241215;23;20379;-83
2022/04/11 00:13:39;;;;;;;9.95;7.20;;;;;;;3.00;80.54;94752.94;6241106;23;20266;-83
2022/04/11 00:16:07;;;;;;;14.38;7.22;;;;;;;3.15;79.79;94773.34;6239408;22;20008;-83
2022/04/11 00:18:33;;;;;;;15.48;7.43;;;;;;;3.34;79.91;94814.03;6237920;23;20299;-83
2022/04/11 00:20:59;;;;;;;10.40;6.75;;;;;;;3.07;80.09;94754.38;6236979;23;20062;-82
2022/04/11 00:23:25;;;;;;;11.20;7.55;;;;;;;2.77;79.23;94714.56;6234100;23;20020;-85
2022/04/11 00:25:50;;;;;;;10.57;6.50;;;;;;;2.97;78.54;94742.94;6234303;22;20008;-83
2022/04/11 00:28:16;;;;;;;12.02;6.10;;;;;;;3.31;79.45;94799.56;6232925;22;20004;-83
2022/04/11 00:30:41;;;;;;;11.18;7.05;;;;;;;2.81;78.60;94714.91;6235293;22;20012;-83
2022/04/11 00:33:07;;;;;;;13.32;6.45;;;;;;;2.94;79.26;94741.59;6234922;23;20012;-83
2022/04/11 00:35:32;;;;;;;14.15;7.50;;;;;;;2.83;78.98;94716.22;6235765;22;20039;-83
2022/04/11 00:37:58;;;;;;;14.27;6.80;;;;;;;2.81;77.94;94713.06;6231219;23;20012;-83
2022/04/11 00:40:23;;;;;;;9.85;6.43;;;;;;;3.32;77.98;94784.66;6231525;23;20015;-83
2022/04/11 00:42:52;;;;;;;9.10;5.97;;;;;;;3.69;77.96;94830.34;6233796;22;20007;-83
2022/04/11 00:45:18;;;;;;;8.80;6.13;;;;;;;3.73;77.86;94834.09;6231191;23;20024;-83
2022/04/11 00:47:47;;;;;;;13.80;7.05;;;;;;;2.40;77.04;94645.34;6233803;22;20066;-83
2022/04/11 00:50:14;;;;;;;14.20;6.57;;;;;;;3.73;76.50;94838.53;6234056;22;20012;-83
2022/04/11 00:52:43;;;;;;;13.48;6.75;;;;;;;3.41;76.33;94812.06;6231992;23;20087;-83
2022/04/11 00:55:09;;;;;;;10.50;6.47;;;;;;;3.71;75.51;94851.88;6231391;23;20398;-83
2022/04/11 00:57:35;;;;;;;9.68;6.22;;;;;;;3.36;75.25;94818.00;6230829;23;20016;-83
2022/04/11 01:00:04;;;;;;;8.38;5.22;;;;;;;3.55;75.71;94831.69;6231378;23;20115;-83
2022/04/11 01:02:29;;;;;;;8.77;5.50;;;;;;;3.60;76.19;94836.22;6230874;23;20012;-83
2022/04/11 01:04:55;;;;;;;16.65;5.70;;;;;;;3.51;74.91;94848.16;6234116;22;20008;-83
2022/04/11 01:07:21;;;;;;;12.82;5.55;;;;;;;3.33;74.07;94818.50;6230786;23;20012;-83
2022/04/11 01:09:46;;;;;;;13.73;5.63;;;;;;;3.13;74.97;94806.88;6233884;22;20349;-83
2022/04/11 01:12:15;;;;;;;7.90;5.30;;;;;;;2.62;74.60;94724.78;6232226;22;20432;-83
2022/04/11 01:14:40;;;;;;;11.23;5.03;;;;;;;3.12;73.91;94802.66;6234152;22;20004;-83
2022/04/11 01:17:06;;;;;;;9.30;5.70;;;;;;;3.21;74.90;94819.56;6230503;23;20023;-83
2022/04/11 01:19:31;;;;;;;8.18;5.05;;;;;;;2.98;75.19;94794.28;6230655;23;20039;-83
2022/04/11 01:21:57;;;;;;;16.52;7.57;;;;;;;1.82;74.91;94601.91;6232639;22;20084;-83
2022/04/11 01:24:23;;;;;;;9.07;5.20;;;;;;;3.73;75.37;94909.34;6233228;23;20014;-83
2022/04/11 01:26:49;;;;;;;10.48;5.50;;;;;;;3.71;74.08;94914.03;6237402;22;20008;-83
2022/04/11 01:29:19;;;;;;;12.85;5.28;;;;;;;3.74;75.51;94909.09;6234016;23;20016;-83
2022/04/11 01:31:45;;;;;;;8.18;5.13;;;;;;;1.82;74.90;94636.69;6234397;23;20012;-83
2022/04/11 01:34:10;;;;;;;9.52;4.65;;;;;;;2.97;74.32;94830.19;6234454;22;20031;-83
2022/04/11 01:36:36;;;;;;;9.93;5.22;;;;;;;2.53;74.85;94753.16;6234751;23;20043;-83
2022/04/11 01:39:03;;;;;;;7.35;4.65;;;;;;;3.65;74.44;94926.28;6235259;22;20016;-83
2022/04/11 01:41:28;;;;;;;7.63;4.78;;;;;;;3.31;74.12;94885.28;6230794;23;20019;-84
2022/04/11 01:43:53;;;;;;;8.90;5.00;;;;;;;3.05;74.86;94842.88;6230024;23;20016;-83
2022/04/11 01:46:19;;;;;;;7.38;4.25;;;;;;;3.08;74.39;94831.94;6230285;22;20019;-83
2022/04/11 01:48:45;;;;;;;7.78;4.70;;;;;;;2.79;73.73;94800.75;6231024;22;20022;-83
2022/04/11 01:51:12;;;;;;;6.72;4.22;;;;;;;2.95;75.28;94826.19;6231612;22;20012;-83
2022/04/11 01:53:37;;;;;;;6.10;4.40;;;;;;;3.33;73.44;94898.94;6230703;23;20039;-83
2022/04/11 01:56:03;;;;;;;9.00;4.75;;;;;;;2.76;74.14;94802.00;6231735;23;20558;-83
2022/04/11 01:58:29;;;;;;;8.15;4.28;;;;;;;2.90;73.19;94834.75;6232472;23;20019;-83
2022/04/11 02:00:55;;;;;;;7.93;4.47;;;;;;;2.99;74.71;94854.28;6228902;23;20008;-83
2022/04/11 02:03:20;;;;;;;7.60;4.57;;;;;;;0.98;73.86;94566.78;6230044;22;20036;-83
2022/04/11 02:05:46;;;;;;;6.13;3.72;;;;;;;3.04;73.50;94880.63;6229528;23;20016;-83
2022/04/11 02:08:12;;;;;;;6.13;3.90;;;;;;;2.73;75.11;94839.16;6230073;23;20470;-84
2022/04/11 02:10:39;;;;;;;6.38;3.83;;;;;;;3.64;75.25;94971.09;6230462;23;20012;-83
2022/04/11 02:13:05;;;;;;;8.18;4.32;;;;;;;2.81;74.56;94817.03;6230061;23;20018;-83
2022/04/11 02:15:31;;;;;;;6.35;3.90;;;;;;;3.75;74.07;94997.25;6230525;23;20435;-83
2022/04/11 02:17:56;;;;;;;6.50;4.13;;;;;;;3.62;74.92;94962.66;6229993;23;20020;-83
2022/04/11 02:20:22;;;;;;;5.15;3.53;;;;;;;3.37;74.01;94918.41;6232947;22;20304;-83
2022/04/11 02:22:55;;;;;;;10.38;4.18;;;;;;;3.38;74.30;94922.63;6230510;23;20071;-83
2022/04/11 02:25:25;;;;;;;5.75;4.30;;;;;;;3.56;75.23;94950.47;6231315;23;20012;-83
2022/04/11 02:27:54;;;;;;;4.93;3.65;;;;;;;3.42;75.70;94940.28;6230258;23;20047;-83
2022/04/11 02:30:24;;;;;;;7.82;3.95;;;;;;;3.94;75.22;95013.59;6229878;23;20020;-83
2022/04/11 02:32:50;;;;;;;8.25;4.35;;;;;;;2.99;73.00;94875.25;6231410;22;20126;-83
2022/04/11 02:35:19;;;;;;;12.68;4.90;;;;;;;3.17;74.68;94895.25;6233553;22;20083;-83
2022/04/11 02:37:45;;;;;;;8.60;3.95;;;;;;;3.37;75.28;94921.81;6232847;22;20012;-83
2022/04/11 02:40:14;;;;;;;7.68;3.50;;;;;;;3.68;74.00;94999.22;6230430;23;20008;-83
2022/04/11 02:42:42;;;;;;;6.20;3.20;;;;;;;3.78;74.69;95023.00;6230370;22;20439;-83
2022/04/11 02:45:11;;;;;;;7.45;3.58;;;;;;;2.61;73.51;94831.31;6233869;22;20020;-82
2022/04/11 02:47:37;;;;;;;6.57;3.17;;;;;;;2.71;73.86;94888.34;6232342;22;20023;-83
2022/04/11 02:50:03;;;;;;;6.85;3.42;;;;;;;3.25;74.75;94977.94;6232451;22;20012;-82
2022/04/11 02:52:29;;;;;;;6.20;3.42;;;;;;;3.57;74.62;95044.66;6231346;23;20081;-83
2022/04/11 02:54:56;;;;;;;6.63;3.10;;;;;;;3.03;74.40;94959.44;6230891;23;20012;-83
2022/04/11 02:57:22;;;;;;;6.93;3.08;;;;;;;3.57;74.03;95057.75;6231735;23;20065;-83
2022/04/11 02:59:49;;;;;;;4.50;2.95;;;;;;;2.77;74.71;94916.19;6231516;23;20023;-83
2022/04/11 03:02:14;;;;;;;5.57;3.22;;;;;;;2.90;75.20;94941.38;6230616;23;20109;-84
2022/04/11 03:04:40;;;;;;;4.55;2.95;;;;;;;3.67;74.72;95065.00;6234255;22;20026;-84
2022/04/11 03:07:06;;;;;;;11.82;4.10;;;;;;;3.58;74.54;95048.88;6233576;22;20414;-84
2022/04/11 03:09:31;;;;;;;3.88;3.13;;;;;;;3.23;74.31;94993.91;6228684;23;20008;-83
2022/04/11 03:11:57;;;;;;;5.00;2.95;;;;;;;3.30;73.82;95002.41;6227809;23;20043;-84
2022/04/11 03:14:22;;;;;;;5.60;3.10;;;;;;;2.85;73.72;94963.00;6227738;23;20012;-83
2022/04/11 03:16:48;;;;;;;7.93;3.55;;;;;;;2.55;74.50;94933.53;6226925;23;20012;-83
2022/04/11 03:19:14;;;;;;;5.50;3.08;;;;;;;3.44;74.52;95064.03;6229613;22;20036;-84
2022/04/11 03:21:39;;;;;;;5.05;3.15;;;;;;;3.12;75.38;95020.13;6226414;23;20073;-83
2022/04/11 03:24:05;;;;;;;7.60;3.05;;;;;;;2.11;74.10;94869.53;6229972;22;20439;-84
2022/04/11 03:26:31;;;;;;;8.50;3.35;;;;;;;2.92;73.56;94976.75;6229910;22;20000;-83
2022/04/11 03:28:56;;;;;;;7.18;3.58;;;;;;;3.24;72.03;95034.00;6230080;22;20018;-83
2022/04/11 03:31:22;;;;;;;5.22;3.05;;;;;;;3.28;74.23;95028.06;6230814;22;20014;-83
2022/04/11 03:33:47;;;;;;;5.57;3.70;;;;;;;3.05;72.54;95000.06;6227835;23;20436;-83
2022/04/11 03:36:12;;;;;;;5.75;3.50;;;;;;;2.78;74.71;94948.44;6229650;22;20482;-84
2022/04/11 03:38:38;;;;;;;8.13;3.75;;;;;;;3.29;73.59;95063.72;6227881;23;20019;-83
2022/04/11 03:41:04;;;;;;;10.70;4.22;;;;;;;2.97;73.69;95002.28;6230627;23;20007;-83
2022/04/11 03:43:29;;;;;;;7.50;3.47;;;;;;;2.93;73.43;94993.28;6230574;22;20075;-83
2022/04/11 03:45:55;;;;;;;5.70;3.97;;;;;;;3.10;73.68;95021.16;6231003;22;20059;-83
2022/04/11 03:48:21;;;;;;;10.68;4.28;;;;;;;3.73;74.47;95101.63;6229689;23;20022;-84
2022/04/11 03:50:46;;;;;;;8.50;3.90;;;;;;;3.30;73.23;95059.28;6229126;23;20076;-84
2022/04/11 03:53:12;;;;;;;8.38;4.03;;;;;;;2.99;74.11;94994.97;6230365;22;20039;-83
2022/04/11 03:55:38;;;;;;;9.50;4.60;;;;;;;3.72;74.94;95113.13;6228180;23;20877;-84
2022/04/11 03:58:03;;;;;;;4.97;3.50;;;;;;;3.56;73.47;95087.63;6231125;22;20008;-83
2022/04/11 04:00:29;;;;;;;6.10;3.95;;;;;;;3.14;74.24;95023.31;6228789;23;20490;-84
2022/04/11 04:03:07;;;;;;;9.25;4.28;;;;;;;2.69;74.41;94938.31;6234495;22;20431;-85
2022/04/11 04:05:33;;;;;;;7.18;4.32;;;;;;;3.95;74.16;95116.72;6232255;22;20399;-84
2022/04/11 04:07:58;;;;;;;6.30;4.50;;;;;;;3.63;74.83;95074.38;6228228;23;20012;-84
2022/04/11 04:10:26;;;;;;;13.60;5.20;;;;;;;3.17;72.78;95000.06;6227586;23;20111;-84
2022/04/11 04:12:58;;;;;;;8.95;4.53;;;;;;;3.00;72.52;95007.84;6231655;22;20043;-84
2022/04/11 04:15:24;;;;;;;8.95;4.25;;;;;;;3.32;72.09;95050.16;6230074;23;20100;-84
2022/04/11 04:17:54;;;;;;;9.15;4.93;;;;;;;3.13;71.16;95038.22;6224710;23;20099;-84
2022/04/11 04:20:19;;;;;;;8.25;4.97;;;;;;;3.30;71.26;95070.56;6228202;22;20107;-84
2022/04/11 04:22:45;;;;;;;9.55;5.15;;;;;;;3.17;71.12;95049.06;6226649;23;20028;-84
2022/04/11 04:25:10;;;;;;;11.32;5.55;;;;;;;2.69;70.31;94987.25;6227427;23;20035;-84
2022/04/11 04:27:39;;;;;;;12.63;5.30;;;;;;;3.61;70.92;95140.16;6228495;23;20008;-84
2022/04/11 04:30:06;;;;;;;10.00;4.78;;;;;;;3.60;69.71;95153.50;6229859;23;20018;-84
2022/04/11 04:32:31;;;;;;;9.60;4.93;;;;;;;3.27;70.35;95102.50;6224740;23;20498;-83
2022/04/11 04:34:57;;;;;;;11.93;5.07;;;;;;;0.02;69.79;94635.69;6227873;22;20019;-85
2022/04/11 04:37:22;;;;;;;10.90;5.53;;;;;;;2.15;69.79;94957.78;6225185;23;20052;-84
2022/04/11 04:39:48;;;;;;;9.95;5.28;;;;;;;2.42;69.40;95002.63;6229078;22;20012;-84
2022/04/11 04:42:22;;;;;;;13.95;5.63;;;;;;;3.60;70.47;95177.91;6223533;23;20038;-83
2022/04/11 04:44:48;;;;;;;9.60;4.95;;;;;;;2.16;69.75;94959.38;6218108;22;20028;-83
2022/04/11 04:47:17;;;;;;;12.55;5.82;;;;;;;3.39;69.54;95157.53;6227241;23;20503;-82
2022/04/11 04:49:44;;;;;;;8.40;5.72;;;;;;;1.88;69.95;94931.25;6217885;22;20101;-87
2022/04/11 04:52:54;;;;;;;13.38;5.45;;;;;;;1.42;69.39;94847.53;6217799;23;20392;-88
2022/04/11 04:55:20;;;;;;;9.25;5.32;;;;;;;2.48;70.19;95035.75;6213092;23;20016;-86
2022/04/11 04:58:04;;;;;;;19.17;7.10;;;;;;;1.52;71.09;94887.78;6219033;23;20472;-86
2022/04/11 05:00:30;;;;;;;12.32;6.10;;;;;;;2.61;69.84;95077.41;6220392;23;20341;-86
2022/04/11 05:02:56;;;;;;;10.73;6.25;;;;;;;3.42;70.78;95207.69;6219855;23;20012;-83
2022/04/11 05:05:21;;;;;;;13.95;6.68;;;;;;;2.77;70.22;95094.28;6222519;22;20509;-84
2022/04/11 05:07:46;;;;;;;11.43;7.03;;;;;;;2.92;71.01;95133.94;6228793;22;20009;-84
2022/04/11 05:10:12;;;;;;;11.55;6.53;;;;;;;3.05;71.08;95167.00;6223851;23;20502;-84
2022/04/11 05:12:45;;;;;;;11.80;6.35;;;;;;;3.48;71.00;95232.19;6217350;23;20012;-84
2022/04/11 05:15:12;;;;;;;15.23;6.93;;;;;;;3.10;71.10;95182.81;6220557;23;20008;-84
2022/04/11 05:17:37;;;;;;;13.02;7.78;;;;;;;2.72;70.47;95121.16;6218728;23;20613;-84
2022/04/11 05:20:05;;;;;;;16.17;6.88;;;;;;;3.36;70.19;95254.97;6222000;23;20024;-84
2022/04/11 05:22:31;;;;;;;15.35;7.20;;;;;;;1.69;70.87;94996.91;6219363;23;20015;-83
2022/04/11 05:24:56;;;;;;;12.77;7.47;;;;;;;2.26;71.14;95066.09;6219372;23;20027;-83
2022/04/11 05:27:22;;;;;;;20.33;7.55;;;;;;;2.37;71.05;95057.47;6218488;23;20462;-83
2022/04/11 05:29:48;;;;;;;12.85;7.72;;;;;;;2.01;71.08;95007.91;6218257;23;20011;-83
2022/04/11 05:32:13;;;;;;;12.18;6.70;;;;;;;2.86;69.74;95153.16;6219686;23;20011;-84
2022/04/11 05:34:39;;;;;;;14.27;7.22;;;;;;;2.94;70.79;95170.38;6219453;22;20527;-83
2022/04/11 05:37:04;;;;;;;17.80;7.82;;;;;;;3.26;70.35;95226.72;6220092;23;20044;-83
2022/04/11 05:39:30;;;;;;;16.70;6.93;;;;;;;2.83;70.01;95132.66;6218805;23;20071;-83
2022/04/11 05:41:56;;;;;;;14.20;7.60;;;;;;;3.34;69.21;95212.47;6216305;23;20058;-83
2022/04/11 05:44:21;;;;;;;16.08;7.75;;;;;;;3.33;69.20;95248.38;6217983;22;20223;-83
2022/04/11 05:46:52;;;;;;;16.33;7.35;;;;;;;2.85;69.17;95179.59;6217787;23;20030;-82
2022/04/11 05:49:19;;;;;;;12.50;7.20;;;;;;;2.63;69.48;95150.50;6216750;23;20359;-83
2022/04/11 05:51:46;;;;;;;19.00;9.02;;;;;;;2.97;68.87;95196.13;6215517;22;20012;-83
2022/04/11 05:54:11;;;;;;;14.68;7.35;;;;;;;2.61;68.23;95155.16;6220695;22;20012;-84
2022/04/11 05:56:36;;;;;;;13.15;6.82;;;;;;;3.33;68.52;95271.97;6213151;23;20016;-84
2022/04/11 05:59:04;;;;;;;13.00;6.38;;;;;;;3.13;68.30;95239.22;6225240;22;20012;-83
2022/04/11 06:01:32;;;;;;;20.80;7.28;;;;;;;3.17;68.15;95249.03;6226865;23;20016;-83
2022/04/11 06:03:58;;;;;;;15.98;7.82;;;;;;;3.38;68.53;95282.56;6221347;23;20023;-83
2022/04/11 06:06:29;;;;;;;12.85;6.93;;;;;;;2.25;69.18;95094.09;6220229;23;20115;-83
2022/04/11 06:08:55;;;;;;;22.02;7.45;;;;;;;3.16;68.79;95223.03;6221870;23;20016;-83
2022/04/11 06:11:20;;;;;;;12.98;8.43;;;;;;;3.20;68.31;95232.84;6224423;23;20569;-83
2022/04/11 06:13:46;;;;;;;14.98;6.70;;;;;;;2.77;67.27;95159.75;6223658;23;20092;-83
2022/04/11 06:16:27;;;;;;;18.73;7.10;;;;;;;3.38;68.17;95234.56;6227323;22;20010;-83
2022/04/11 06:18:52;;;;;;;14.35;7.45;;;;;;;3.66;67.51;95270.63;6225393;23;20046;-83
2022/04/11 06:21:18;;;;;;;11.88;6.97;;;;;;;2.50;67.40;95119.28;6225046;23;20016;-83
2022/04/11 06:23:43;;;;;;;13.40;7.07;;;;;;;0.46;67.30;94780.56;6220162;23;20148;-82
2022/04/11 06:26:09;;;;;;;18.42;7.55;;;;;;;0.58;66.35;94825.78;6224608;23;20008;-83
2022/04/11 06:28:34;;;;;;;15.65;6.85;;;;;;;2.73;66.68;95135.06;6224601;22;20008;-82
2022/04/11 06:31:00;;;;;;;13.45;6.95;;;;;;;2.07;66.26;95038.41;6230677;22;20122;-84
2022/04/11 06:33:28;;;;;;;17.45;7.53;;;;;;;3.72;66.98;95285.44;6226102;23;20058;-84
2022/04/11 06:35:54;;;;;;;15.32;6.78;;;;;;;3.01;65.95;95203.31;6225800;23;20008;-83
2022/04/11 06:38:19;;;;;;;16.20;8.23;;;;;;;2.59;66.35;95125.81;6227191;23;20016;-83
2022/04/11 06:40:45;;;;;;;17.02;8.35;;;;;;;2.65;66.19;95102.13;6231861;22;20038;-83
2022/04/11 06:43:10;;;;;;;13.57;7.05;;;;;;;3.10;64.95;95169.72;6225133;23;20278;-83
2022/04/11 06:45:35;;;;;;;18.85;7.68;;;;;;;3.36;65.35;95200.72;6229060;22;20418;-84
2022/04/11 06:48:01;;;;;;;19.17;7.60;;;;;;;3.03;65.47;95138.38;6226221;22;20399;-83
2022/04/11 06:50:26;;;;;;;17.80;7.30;;;;;;;3.62;65.54;95225.69;6227039;23;20320;-83
2022/04/11 06:52:52;;;;;;;13.18;7.07;;;;;;;2.88;64.37;95111.03;6224873;23;20012;-83
2022/04/11 06:55:17;;;;;;;15.50;8.30;;;;;;;2.30;65.14;95007.84;6224216;23;20134;-83
2022/04/11 06:57:43;;;;;;;21.02;7.80;;;;;;;3.70;63.76;95251.56;6228261;23;20023;-84
2022/04/11 07:00:08;;;;;;;12.75;6.75;;;;;;;3.54;63.50;95226.03;6230711;22;20023;-83
2022/04/11 07:02:36;;;;;;;13.82;7.90;;;;;;;2.61;63.78;95077.41;6223913;23;20463;-82
2022/04/11 07:05:02;;;;;;;14.63;6.93;;;;;;;3.63;62.96;95237.78;6226901;22;20027;-84
2022/04/11 07:07:27;;;;;;;12.88;6.88;;;;;;;3.38;62.74;95175.06;6223442;23;20019;-83
2022/04/11 07:09:53;;;;;;;15.32;6.30;;;;;;;2.81;62.39;95090.19;6225555;23;20392;-82
2022/04/11 07:12:18;;;;;;;13.32;6.57;;;;;;;4.02;62.94;95272.19;6223898;22;20060;-83
2022/04/11 07:14:44;;;;;;;10.02;6.15;;;;;;;4.40;62.63;95311.06;6226237;23;20062;-83
2022/04/11 07:17:09;;;;;;;13.95;6.05;;;;;;;3.57;62.23;95188.88;6225763;23;20012;-83
2022/04/11 07:19:35;;;;;;;12.57;6.15;;;;;;;3.62;61.38;95183.72;6227788;22;20012;-83
2022/04/11 07:22:00;;;;;;;13.43;6.22;;;;;;;4.01;61.59;95218.13;6225382;23;20012;-83
2022/04/11 07:24:26;;;;;;;13.95;6.70;;;;;;;4.20;61.17;95262.34;6227836;22;20426;-84
2022/04/11 07:26:51;;;;;;;18.05;7.03;;;;;;;3.76;61.73;95153.59;6223707;23;20562;-83
2022/04/11 07:29:16;;;;;;;8.00;6.50;;;;;;;4.13;60.58;95222.31;6225161;23;20012;-83
2022/04/11 07:31:42;;;;;;;12.07;5.93;;;;;;;4.76;60.68;95307.31;6227668;22;20008;-84
2022/04/11 07:34:07;;;;;;;13.73;6.03;;;;;;;4.25;61.20;95215.22;6231761;23;20022;-84
2022/04/11 07:36:33;;;;;;;15.60;6.35;;;;;;;4.95;60.49;95309.53;6228517;23;20451;-85
2022/04/11 07:38:58;;;;;;;12.48;6.25;;;;;;;4.83;60.54;95287.75;6229821;22;20042;-84
2022/04/11 07:41:27;;;;;;;10.80;5.63;;;;;;;4.28;58.42;95232.31;6227485;22;20015;-83
2022/04/11 07:43:57;;;;;;;11.15;6.32;;;;;;;4.02;58.87;95201.34;6223985;23;20095;-84
2022/04/11 07:46:25;;;;;;;13.05;6.18;;;;;;;4.19;60.03;95192.53;6224873;23;20200;-84
2022/04/11 07:48:50;;;;;;;16.55;6.28;;;;;;;4.31;59.11;95225.81;6222387;23;20095;-83
2022/04/11 07:51:16;;;;;;;11.35;6.47;;;;;;;4.43;59.89;95239.69;6225584;23;20040;-84
2022/04/11 07:53:41;;;;;;;10.98;6.20;;;;;;;5.10;59.04;95327.41;6223548;23;20494;-83
2022/04/11 07:56:07;;;;;;;12.77;5.88;;;;;;;4.38;58.30;95221.22;6219519;23;20035;-82
2022/04/11 07:58:32;;;;;;;11.82;6.50;;;;;;;5.04;58.81;95334.38;6220194;22;20448;-83
2022/04/11 08:00:58;;;;;;;12.30;5.93;;;;;;;4.60;57.83;95254.47;6221161;22;20016;-83
2022/04/11 08:03:23;;;;;;;16.75;6.28;;;;;;;5.32;57.15;95354.63;6218832;23;20012;-82
2022/04/11 08:05:49;;;;;;;10.45;5.95;;;;;;;4.58;56.96;95234.72;6222479;23;20101;-83
2022/04/11 08:08:15;;;;;;;12.93;6.13;;;;;;;4.71;58.03;95259.94;6222321;23;20447;-83
2022/04/11 08:10:41;;;;;;;9.40;5.30;;;;;;;5.47;56.39;95375.16;6222499;23;20755;-84
2022/04/11 08:13:06;;;;;;;13.52;5.47;;;;;;;5.23;57.28;95342.91;6223912;23;20099;-83
2022/04/11 08:15:32;;;;;;;11.23;5.57;;;;;;;4.35;55.79;95182.31;6221907;23;20019;-83
2022/04/11 08:17:58;;;;;;;13.10;4.80;;;;;;;5.50;54.42;95350.19;6222625;23;20102;-82
2022/04/11 08:20:25;;;;;;;8.50;4.45;;;;;;;5.25;54.16;95306.66;6224390;23;20357;-83
2022/04/11 08:22:50;;;;;;;16.90;5.20;;;;;;;4.94;54.46;95252.75;6217485;22;20015;-83
2022/04/11 08:25:16;;;;;;;10.43;4.68;;;;;;;5.57;53.92;95338.47;6222150;23;20012;-83
2022/04/11 08:27:42;;;;;;;15.30;5.60;;;;;;;5.28;56.29;95260.66;6223897;23;20019;-83
2022/04/11 08:30:10;;;;;;;8.15;5.03;;;;;;;5.77;53.84;95324.88;6222100;23;20348;-83
2022/04/11 08:32:49;;;;;;;15.73;6.35;;;;;;;5.78;55.76;95316.75;6222873;23;20007;-83
2022/04/11 08:35:18;;;;;;;14.70;6.43;;;;;;;6.08;54.07;95355.91;6221617;23;20012;-81
2022/04/11 08:37:43;;;;;;;11.07;5.40;;;;;;;5.59;53.98;95327.72;6224013;23;20012;-82
2022/04/11 08:40:18;;;;;;;15.68;5.90;;;;;;;5.53;54.73;95312.91;6223802;22;20007;-82
2022/04/11 08:42:45;;;;;;;14.80;5.63;;;;;;;5.50;54.35;95289.69;6221143;23;20012;-82
2022/04/11 08:45:16;;;;;;;9.73;5.65;;;;;;;5.55;53.90;95295.03;6217072;22;20020;-83
2022/04/11 08:47:42;;;;;;;;;;;;;;;6.20;53.80;95384.78;6223769;23;20658;-82
2022/04/11 08:50:09;;;;;;;11.90;6.38;;;;;;;5.66;53.09;95284.44;6224296;23;20159;-82
2022/04/11 08:52:36;;;;;;;10.23;5.13;;;;;;;5.74;53.06;95283.22;6225902;23;20016;-82
2022/04/11 08:55:03;;;;;;;16.52;6.68;;;;;;;6.07;53.29;95332.47;6225061;23;20008;-82
2022/04/11 08:57:29;;;;;;;12.38;5.70;;;;;;;5.72;53.01;95259.78;6221936;23;20019;-83
2022/04/11 08:59:55;;;;;;;10.23;5.72;;;;;;;5.84;52.43;95309.72;6225478;23;20569;-82
2022/04/11 09:02:31;;;;;;;12.15;5.40;;;;;;;6.15;51.54;95303.88;6225190;22;20023;-82
2022/04/11 09:04:57;;;;;;;11.75;5.85;;;;;;;6.12;52.27;95328.06;6224255;22;20012;-83
2022/04/11 09:07:26;;;;;;;7.38;5.10;;;;;;;5.64;51.56;95246.25;6221019;23;20027;-83
2022/04/11 09:10:00;;;;;;;7.13;5.13;;;;;;;6.42;51.87;95380.38;6222921;23;20008;-82
2022/04/11 09:12:26;;;;;;;8.02;5.03;;;;;;;6.39;52.16;95388.78;6225781;23;20078;-82
2022/04/11 09:14:55;;;;;;;11.60;6.07;;;;;;;5.67;51.91;95293.13;6224034;23;20747;-82
2022/04/11 09:17:24;;;;;;;12.27;4.63;;;;;;;5.52;51.28;95253.41;6229156;22;20008;-83
2022/04/11 09:20:12;;;;;;;12.68;5.35;;;;;;;5.51;51.50;95236.84;6226425;23;20466;-84
2022/04/11 09:22:38;;;;;;;8.63;5.25;;;;;;;5.55;50.88;95242.44;6229141;22;20031;-83
2022/04/11 09:25:07;;;;;;;13.90;6.38;;;;;;;6.40;51.58;95413.28;6225465;22;20119;-83
2022/04/11 09:27:33;;;;;;;8.65;5.20;;;;;;;6.32;52.10;95367.06;6221558;23;20055;-82
2022/04/11 09:29:59;;;;;;;10.23;4.93;;;;;;;5.52;51.09;95235.00;6224634;23;20020;-83
2022/04/11 09:32:24;;;;;;;8.82;5.20;;;;;;;6.58;51.07;95397.19;6224908;23;20553;-83
2022/04/11 09:34:58;;;;;;;9.90;5.20;;;;;;;6.07;51.25;95321.94;6227002;22;20007;-82
2022/04/11 09:37:24;;;;;;;9.60;4.72;;;;;;;6.43;49.67;95391.69;6227336;22;20008;-83
2022/04/11 09:39:58;;;;;;;10.68;5.78;;;;;;;5.64;50.12;95251.53;6227924;23;20012;-82
2022/04/11 09:42:33;;;;;;;10.70;4.82;;;;;;;6.05;49.69;95301.09;6220496;23;20344;-81
2022/04/11 09:45:00;;;;;;;12.48;5.07;;;;;;;6.87;49.95;95372.25;6225093;23;20036;-81
2022/04/11 09:47:26;;;;;;;11.35;5.63;;;;;;;6.38;50.42;95300.25;6225545;23;20576;-80
2022/04/11 09:49:51;;;;;;;12.77;6.00;;;;;;;6.75;49.98;95363.69;6224169;23;20023;-80
2022/04/11 09:52:17;;;;;;;10.00;5.35;;;;;;;6.68;50.78;95335.91;6226821;23;20015;-81
2022/04/11 09:54:49;;;;;;;11.70;5.30;;;;;;;6.14;50.79;95254.88;6229081;22;20007;-82
2022/04/11 09:57:18;;;;;;;12.75;5.10;;;;;;;7.12;49.10;95379.69;6227287;23;20081;-82
2022/04/11 09:59:45;;;;;;;10.82;5.18;;;;;;;6.88;50.04;95317.69;6227735;23;20586;-82
2022/04/11 10:02:14;;;;;;;11.35;6.10;;;;;;;6.93;50.34;95323.84;6227836;23;20103;-83
2022/04/11 10:04:40;;;;;;;6.70;5.32;;;;;;;7.31;50.04;95393.34;6227452;22;20008;-82
2022/04/11 10:07:15;;;;;;;6.95;5.35;;;;;;;7.62;48.46;95368.88;6229123;23;20220;-81
2022/04/11 10:09:42;;;;;;;9.90;5.28;;;;;;;7.88;46.17;95313.63;6228563;23;20023;-81
2022/04/11 10:12:09;;;;;;;7.80;5.30;;;;;;;9.04;45.04;95359.25;6228720;23;20019;-82
2022/04/11 10:14:35;;;;;;;10.98;4.88;;;;;;;9.58;44.01;95356.22;6227514;23;20488;-83
2022/04/11 10:17:02;;;;;;;13.57;5.60;;;;;;;9.53;43.81;95343.78;6232306;23;20083;-83
2022/04/11 10:19:30;;;;;;;10.27;4.43;;;;;;;9.09;42.35;95382.28;6225525;22;20016;-81
2022/04/11 10:22:11;;;;;;;10.98;4.00;;;;;;;8.38;43.21;95329.88;6226021;23;20012;-82
2022/04/11 10:25:07;;;;;;;8.25;3.92;;;;;;;8.26;44.45;95376.78;6226182;23;20355;-82
2022/04/11 10:27:38;;;;;;;9.80;4.20;;;;;;;8.77;44.04;95358.63;6223272;23;20069;-83
2022/04/11 10:30:28;;;;;;;16.33;4.32;;;;;;;9.34;42.73;95377.09;6206121;23;20019;-83
2022/04/11 10:32:55;;;;;;;6.57;4.00;;;;;;;7.90;42.01;95064.13;6208004;23;20099;-84
2022/04/11 10:36:03;;;;;;;;;;;;;;;;;;;;;
2022/04/11 10:42:23;;;;;;;9.10;5.00;;;;;;;10.86;40.91;95357.75;6230511;22;20565;-84
2022/04/11 10:44:53;;;;;;;14.32;5.13;;;;;;;9.36;41.91;95250.59;6248149;22;20049;-82
2022/04/11 10:47:27;;;;;;;6.85;4.38;;;;;;;8.68;42.80;95227.97;6255996;22;20015;-83
2022/04/11 10:49:55;;;;;;;7.18;4.55;;;;;;;9.34;43.29;95371.00;6255405;22;20089;-82
2022/04/11 10:52:30;;;;;;;7.97;4.43;;;;;;;8.98;43.54;95355.00;6251777;22;20023;-82
2022/04/11 10:55:14;;;;;;;8.13;4.40;;;;;;;9.22;44.06;95353.50;6256177;22;20586;-82
2022/04/11 10:57:42;;;;;;;7.72;4.18;;;;;;;9.14;43.31;95371.75;6256500;22;20279;-83
2022/04/11 11:00:19;;;;;;;12.27;4.53;;;;;;;8.94;42.92;95316.09;6252889;22;20391;-83
2022/04/11 11:02:48;;;;;;;8.68;4.43;;;;;;;9.13;42.76;95380.72;6254788;22;20015;-83
2022/04/11 11:05:28;;;;;;;6.63;3.85;;;;;;;8.83;43.02;95371.59;6255292;22;20429;-82
2022/04/11 11:08:09;;;;;;;7.82;3.60;;;;;;;8.72;42.74;95388.47;6256311;22;20008;-82
2022/04/11 11:10:44;;;;;;;12.47;4.67;;;;;;;7.87;42.87;95238.09;6255128;22;20018;-82
2022/04/11 11:13:34;;;;;;;12.55;4.70;;;;;;;9.43;42.11;95372.09;6252568;22;20149;-82
2022/04/11 11:16:06;;;;;;;5.90;3.80;;;;;;;9.54;42.16;95352.50;6257037;22;20012;-83
2022/04/11 11:21:13;;;;;;;6.93;4.28;;;;;;;9.25;41.44;95376.00;6267412;22;19921;-83
2022/04/11 11:23:38;;;;;;;7.22;4.00;;;;;;;8.58;41.66;95281.59;6266552;22;20033;-81
2022/04/11 11:26:15;;;;;;;8.90;4.82;;;;;;;8.13;43.22;95247.78;6264976;22;20015;-83
2022/04/11 11:28:42;;;;;;;8.98;4.82;;;;;;;8.50;43.93;95382.53;6256604;22;20007;-83
2022/04/11 11:31:07;;;;;;;11.13;4.65;;;;;;;8.08;43.99;95276.81;6260215;22;20650;-83
2022/04/11 11:33:33;;;;;;;7.60;4.72;;;;;;;8.04;43.12;95258.03;6261136;22;20280;-84
2022/04/11 11:36:01;;;;;;;4.85;3.25;;;;;;;8.23;42.56;95294.59;6260154;22;20076;-82
2022/04/11 11:38:29;;;;;;;7.13;3.85;;;;;;;8.55;43.28;95361.41;6259233;22;20019;-84
2022/04/11 11:40:57;;;;;;;6.80;4.50;;;;;;;7.74;43.64;95268.38;6260400;22;20012;-82
2022/04/11 11:43:24;;;;;;;7.50;4.53;;;;;;;7.14;44.37;95198.25;6253610;22;20229;-83
2022/04/11 11:45:50;;;;;;;5.88;4.18;;;;;;;7.55;43.13;95291.72;6200965;23;20007;-82
2022/04/11 11:48:28;;;;;;;11.57;5.20;;;;;;;7.91;42.54;95318.41;6198782;23;20015;-82